createdAt,value
2023-02-14T00:01:11.122Z,87.28
2023-02-14T00:03:38.000Z,96.38
2023-02-14T00:06:11.196Z,88.88
2023-02-14T00:08:38.106Z,97.03
2023-02-14T00:11:05.963Z,97.97
2023-02-14T00:13:33.033Z,95.68
2023-02-14T00:16:00.279Z,99.22
2023-02-14T00:18:47.701Z,99.05
2023-02-14T00:21:15.158Z,101.40
2023-02-14T00:23:41.947Z,95.97
2023-02-14T00:26:15.421Z,93.10
2023-02-14T00:28:42.412Z,98.15
2023-02-14T00:31:09.575Z,104.60
2023-02-14T00:33:37.306Z,104.45
2023-02-14T00:36:07.914Z,103.00
2023-02-14T00:38:35.369Z,95.95
2023-02-14T00:41:03.064Z,97.93
2023-02-14T00:43:30.435Z,116.68
2023-02-14T00:45:57.507Z,101.55
2023-02-14T00:48:24.591Z,109.15
2023-02-14T00:50:51.767Z,102.88
2023-02-14T00:53:18.577Z,92.20
2023-02-14T00:55:46.952Z,102.43
2023-02-14T00:58:13.968Z,91.05
2023-02-14T01:00:40.834Z,97.88
2023-02-14T01:03:08.032Z,104.78
2023-02-14T01:05:34.913Z,109.22
2023-02-14T01:08:01.676Z,101.80
2023-02-14T01:10:28.530Z,110.65
2023-02-14T01:12:55.466Z,122.05
2023-02-14T01:15:22.495Z,107.22
2023-02-14T01:17:49.409Z,114.10
2023-02-14T01:20:16.323Z,125.65
2023-02-14T01:22:43.481Z,116.93
2023-02-14T01:25:10.370Z,130.80
2023-02-14T01:27:37.410Z,114.30
2023-02-14T01:30:05.375Z,117.47
2023-02-14T01:32:32.821Z,126.22
2023-02-14T01:35:00.489Z,117.15
2023-02-14T01:37:27.571Z,117.88
2023-02-14T01:39:54.516Z,115.07
2023-02-14T01:42:21.744Z,122.47
2023-02-14T01:44:48.471Z,111.47
2023-02-14T01:47:17.768Z,124.28
2023-02-14T01:49:51.894Z,112.05
2023-02-14T01:52:28.924Z,95.97
2023-02-14T01:55:02.320Z,116.65
2023-02-14T01:57:40.678Z,126.40
2023-02-14T02:00:27.932Z,112.88
2023-02-14T02:02:57.276Z,127.07
2023-02-14T02:05:24.386Z,139.05
2023-02-14T02:07:55.866Z,123.57
2023-02-14T02:10:22.677Z,112.13
2023-02-14T02:12:53.083Z,117.97
2023-02-14T02:15:24.390Z,113.18
2023-02-14T02:18:02.856Z,118.65
2023-02-14T02:21:05.022Z,124.25
2023-02-14T02:24:17.783Z,125.57
2023-02-14T02:27:07.183Z,127.47
2023-02-14T02:30:02.886Z,124.35
2023-02-14T02:32:57.007Z,124.55
2023-02-14T02:35:36.018Z,116.32
2023-02-14T02:38:19.957Z,121.15
2023-02-14T02:40:56.196Z,123.50
2023-02-14T02:43:47.705Z,132.65
2023-02-14T02:46:44.350Z,123.32
2023-02-14T02:50:03.951Z,111.60
2023-02-14T02:53:03.172Z,111.95
2023-02-14T02:56:47.610Z,126.35
2023-02-14T02:59:28.823Z,127.90
2023-02-14T03:02:10.198Z,120.97
2023-02-14T03:04:53.757Z,121.88
2023-02-14T03:07:40.802Z,130.75
2023-02-14T03:10:07.890Z,132.75
2023-02-14T03:12:39.659Z,130.73
2023-02-14T03:15:23.024Z,125.80
2023-02-14T03:18:36.463Z,118.15
2023-02-14T03:21:15.265Z,126.25
2023-02-14T03:23:58.641Z,118.22
2023-02-14T03:26:46.077Z,117.70
2023-02-14T03:29:41.958Z,112.32
2023-02-14T03:32:50.207Z,115.53
2023-02-14T03:35:25.953Z,109.05
2023-02-14T03:38:01.959Z,119.68
2023-02-14T03:40:37.785Z,124.18
2023-02-14T03:43:11.302Z,104.03
2023-02-14T03:45:51.653Z,111.57
2023-02-14T03:48:22.130Z,98.32
2023-02-14T03:50:51.878Z,113.25
2023-02-14T03:53:27.035Z,127.25
2023-02-14T03:56:18.119Z,120.10
2023-02-14T03:58:54.563Z,118.82
2023-02-14T04:01:50.030Z,131.82
2023-02-14T04:06:47.899Z,114.43
2023-02-14T04:09:14.783Z,125.70
2023-02-14T04:11:41.977Z,113.85
2023-02-14T04:14:08.786Z,126.80
2023-02-14T04:16:55.784Z,122.80
2023-02-14T04:19:25.247Z,129.93
2023-02-14T04:21:53.025Z,125.80
2023-02-14T04:24:20.551Z,133.20
2023-02-14T04:27:06.161Z,119.70
2023-02-14T04:29:32.920Z,121.07
2023-02-14T04:31:59.757Z,137.48
2023-02-14T04:34:26.642Z,114.22
2023-02-14T04:36:53.393Z,120.22
2023-02-14T04:39:20.203Z,127.40
2023-02-14T04:41:46.961Z,122.03
2023-02-14T04:44:13.986Z,123.60
2023-02-14T04:46:40.806Z,132.70
2023-02-14T04:49:07.641Z,129.77
2023-02-14T04:51:34.433Z,124.07
2023-02-14T04:54:01.243Z,138.48
2023-02-14T04:56:28.068Z,137.45
2023-02-14T04:58:55.468Z,153.57
2023-02-14T05:01:22.269Z,138.65
2023-02-14T05:03:49.052Z,143.55
2023-02-14T05:06:16.103Z,162.02
2023-02-14T05:08:42.947Z,135.05
2023-02-14T05:11:09.933Z,137.60
2023-02-14T05:13:36.861Z,157.07
2023-02-14T05:16:03.887Z,164.23
2023-02-14T05:18:30.658Z,142.18
2023-02-14T05:20:58.064Z,136.82
2023-02-14T05:23:25.136Z,163.52
2023-02-14T05:25:52.739Z,150.80
2023-02-14T05:28:20.388Z,155.20
2023-02-14T05:30:47.572Z,177.27
2023-02-14T05:33:14.395Z,193.77
2023-02-14T05:35:41.222Z,182.07
2023-02-14T05:38:08.172Z,191.57
2023-02-14T05:40:35.046Z,198.93
2023-02-14T05:43:02.129Z,209.98
2023-02-14T05:45:28.949Z,194.63
2023-02-14T05:47:55.793Z,251.82
2023-02-14T05:50:22.661Z,221.32
2023-02-14T05:52:49.487Z,217.40
2023-02-14T05:55:16.295Z,223.18
2023-02-14T05:57:43.540Z,243.55
2023-02-14T06:00:11.469Z,294.60
2023-02-14T06:02:38.298Z,210.13
2023-02-14T06:05:05.444Z,269.80
2023-02-14T06:07:32.226Z,286.40
2023-02-14T06:09:59.363Z,226.00
2023-02-14T06:12:26.250Z,281.23
2023-02-14T06:14:53.011Z,215.98
2023-02-14T06:17:19.786Z,235.35
2023-02-14T06:19:46.558Z,199.13
2023-02-14T06:22:13.396Z,209.73
2023-02-14T06:24:43.189Z,274.20
2023-02-14T06:27:10.126Z,215.00
2023-02-14T06:29:36.927Z,284.85
2023-02-14T06:32:07.304Z,207.23
2023-02-14T06:34:35.045Z,365.33
2023-02-14T06:37:02.146Z,288.58
2023-02-14T06:39:28.919Z,282.52
2023-02-14T06:41:55.692Z,300.77
2023-02-14T06:44:22.601Z,229.70
2023-02-14T06:46:49.359Z,281.50
2023-02-14T06:49:16.200Z,245.73
2023-02-14T06:51:42.963Z,235.55
2023-02-14T06:54:09.828Z,307.92
2023-02-14T06:56:36.658Z,187.88
2023-02-14T06:59:03.830Z,229.98
2023-02-14T07:01:30.640Z,334.85
2023-02-14T07:03:57.416Z,162.65
2023-02-14T07:06:24.592Z,204.23
2023-02-14T07:08:51.707Z,287.00
2023-02-14T07:11:18.636Z,163.95
2023-02-14T07:13:45.397Z,162.32
2023-02-14T07:16:12.291Z,217.60
2023-02-14T07:18:39.076Z,162.65
2023-02-14T07:21:06.345Z,182.30
2023-02-14T07:23:33.229Z,288.80
2023-02-14T07:26:00.184Z,228.18
2023-02-14T07:28:27.029Z,198.73
2023-02-14T07:30:53.893Z,180.00
2023-02-14T07:33:20.919Z,154.80
2023-02-14T07:35:47.653Z,336.83
2023-02-14T07:38:14.449Z,290.95
2023-02-14T07:40:41.267Z,210.13
2023-02-14T07:43:08.297Z,192.52
2023-02-14T07:45:35.065Z,170.13
2023-02-14T07:48:02.380Z,196.93
2023-02-14T07:50:29.937Z,204.05
2023-02-14T07:52:57.123Z,264.02
2023-02-14T07:55:25.314Z,176.80
2023-02-14T07:57:52.344Z,229.85
2023-02-14T08:00:19.910Z,174.02
2023-02-14T08:02:46.713Z,174.52
2023-02-14T08:05:14.952Z,191.65
2023-02-14T08:07:43.238Z,190.35
2023-02-14T08:10:12.867Z,224.38
2023-02-14T08:12:58.889Z,226.73
2023-02-14T08:15:50.633Z,217.05
2023-02-14T08:18:18.953Z,178.73
2023-02-14T08:20:48.860Z,192.50
2023-02-14T08:23:17.730Z,229.60
2023-02-14T08:25:45.094Z,196.27
2023-02-14T08:28:13.940Z,195.75
2023-02-14T08:30:42.651Z,193.95
2023-02-14T08:33:09.569Z,166.73
2023-02-14T08:35:37.182Z,197.43
2023-02-14T08:38:05.029Z,200.68
2023-02-14T08:40:33.546Z,238.13
2023-02-14T08:43:00.299Z,191.18
2023-02-14T08:45:27.147Z,193.45
2023-02-14T08:47:53.999Z,159.57
2023-02-14T08:50:21.275Z,184.52
2023-02-14T08:52:48.069Z,202.10
2023-02-14T08:55:14.935Z,193.05
2023-02-14T08:57:41.808Z,200.45
2023-02-14T09:00:10.385Z,212.07
2023-02-14T09:02:37.240Z,197.20
2023-02-14T09:05:04.429Z,145.95
2023-02-14T09:07:31.448Z,154.50
2023-02-14T09:09:58.350Z,171.88
2023-02-14T09:12:25.199Z,171.32
2023-02-14T09:14:52.011Z,181.38
2023-02-14T09:17:19.103Z,203.60
2023-02-14T09:19:46.240Z,201.13
2023-02-14T09:22:13.211Z,160.15
2023-02-14T09:24:41.526Z,162.45
2023-02-14T09:27:09.416Z,177.13
2023-02-14T09:29:36.639Z,170.80
2023-02-14T09:32:03.985Z,141.40
2023-02-14T09:34:52.484Z,143.18
2023-02-14T09:37:37.634Z,142.20
2023-02-14T09:40:05.452Z,129.77
2023-02-14T09:42:35.156Z,137.63
2023-02-14T09:45:10.874Z,132.40
2023-02-14T09:47:45.798Z,122.32
2023-02-14T09:53:28.296Z,116.28
2023-02-14T09:56:04.225Z,112.45
2023-02-14T09:58:49.784Z,106.43
2023-02-14T10:01:31.027Z,109.00
2023-02-14T10:04:54.396Z,114.43
2023-02-14T10:07:55.358Z,105.10
2023-02-14T10:10:43.902Z,102.32
2023-02-14T10:13:33.754Z,99.05
2023-02-14T10:16:18.723Z,87.57
2023-02-14T10:18:58.149Z,98.35
2023-02-14T10:21:35.497Z,89.10
2023-02-14T10:24:14.507Z,99.28
2023-02-14T10:26:41.855Z,94.95
2023-02-14T10:29:16.932Z,97.53
2023-02-14T10:32:01.509Z,85.63
2023-02-14T10:34:50.568Z,79.07
2023-02-14T10:37:46.765Z,78.32
2023-02-14T10:40:40.645Z,85.22
2023-02-14T10:44:14.982Z,84.82
2023-02-14T10:46:53.755Z,75.53
2023-02-14T10:49:26.723Z,78.60
2023-02-14T10:52:37.649Z,70.72
2023-02-14T10:55:43.040Z,70.05
2023-02-14T10:58:16.700Z,68.07
2023-02-14T11:01:17.586Z,63.25
2023-02-14T11:04:03.837Z,63.53
2023-02-14T11:06:31.385Z,68.45
2023-02-14T11:08:59.054Z,62.10
2023-02-14T11:11:32.230Z,64.15
2023-02-14T11:13:59.056Z,62.55
2023-02-14T11:16:36.759Z,67.35
2023-02-14T11:19:15.664Z,63.95
2023-02-14T11:21:45.636Z,61.45
2023-02-14T11:24:36.420Z,60.20
2023-02-14T11:27:17.656Z,60.72
2023-02-14T11:29:49.125Z,63.42
2023-02-14T11:32:25.725Z,66.82
2023-02-14T11:35:01.640Z,68.63
2023-02-14T11:37:34.491Z,73.82
2023-02-14T11:40:02.589Z,70.15
2023-02-14T11:42:46.469Z,72.80
2023-02-14T11:45:37.438Z,71.57
2023-02-14T11:48:34.905Z,68.03
2023-02-14T11:51:10.115Z,64.95
2023-02-14T11:53:49.529Z,59.28
2023-02-14T11:56:19.247Z,61.20
2023-02-14T11:58:57.334Z,55.45
2023-02-14T12:01:33.451Z,58.50
2023-02-14T12:04:07.472Z,55.53
2023-02-14T12:06:36.793Z,52.90
2023-02-14T12:09:25.427Z,54.00
2023-02-14T12:11:57.430Z,56.67
2023-02-14T12:14:29.818Z,52.05
2023-02-14T12:17:11.799Z,51.05
2023-02-14T12:19:50.793Z,50.35
2023-02-14T12:22:28.550Z,52.72
2023-02-14T12:25:25.002Z,48.75
2023-02-14T12:28:06.226Z,55.63
2023-02-14T12:30:35.577Z,53.20
2023-02-14T12:33:02.619Z,47.60
2023-02-14T12:35:54.193Z,48.67
2023-02-14T12:38:39.648Z,47.47
2023-02-14T12:43:57.325Z,45.55
2023-02-14T12:46:45.316Z,44.65
2023-02-14T12:49:33.989Z,47.30
2023-02-14T12:52:06.712Z,48.30
2023-02-14T12:54:45.709Z,48.83
2023-02-14T12:57:39.804Z,49.17
2023-02-14T13:00:36.043Z,46.60
2023-02-14T13:03:11.641Z,42.13
2023-02-14T13:06:07.673Z,43.75
2023-02-14T13:09:09.585Z,41.30
2023-02-14T13:12:01.106Z,45.22
2023-02-14T13:14:30.971Z,43.65
2023-02-14T13:17:06.412Z,42.70
2023-02-14T13:19:53.923Z,40.13
2023-02-14T13:22:24.302Z,37.97
2023-02-14T13:25:04.030Z,38.47
2023-02-14T13:27:36.633Z,37.28
2023-02-14T13:30:13.435Z,38.13
2023-02-14T13:32:45.710Z,38.85
2023-02-14T13:35:22.363Z,38.88
2023-02-14T13:37:57.944Z,39.72
2023-02-14T13:40:29.215Z,40.75
2023-02-14T13:43:01.884Z,40.80
2023-02-14T13:45:40.950Z,32.22
2023-02-14T13:48:28.520Z,30.02
2023-02-14T13:51:07.311Z,31.42
2023-02-14T13:53:36.942Z,33.85
2023-02-14T13:56:30.203Z,32.67
2023-02-14T13:59:01.109Z,28.02
2023-02-14T14:01:48.588Z,29.55
2023-02-14T14:04:31.968Z,32.17
2023-02-14T14:07:04.825Z,31.83
2023-02-14T14:09:40.706Z,28.63
2023-02-14T14:12:27.411Z,29.42
2023-02-14T14:15:06.133Z,33.42
2023-02-14T14:17:46.453Z,30.73
2023-02-14T14:20:16.199Z,28.85
2023-02-14T14:22:58.434Z,34.55
2023-02-14T14:25:38.286Z,28.10
2023-02-14T14:28:25.244Z,28.77
2023-02-14T14:30:53.058Z,30.42
2023-02-14T14:33:35.002Z,35.30
2023-02-14T14:36:23.128Z,36.78
2023-02-14T14:38:53.778Z,28.15
2023-02-14T14:41:29.221Z,35.70
2023-02-14T14:43:56.113Z,26.35
2023-02-14T14:46:23.851Z,30.20
2023-02-14T14:48:55.116Z,30.83
2023-02-14T14:51:30.468Z,37.90
2023-02-14T14:54:04.867Z,35.05
2023-02-14T14:56:39.931Z,33.08
2023-02-14T15:01:54.565Z,29.75
2023-02-14T15:04:32.813Z,34.28
2023-02-14T15:07:30.447Z,31.85
2023-02-14T15:09:57.458Z,27.33
2023-02-14T15:12:44.517Z,28.90
2023-02-14T15:15:14.846Z,24.90
2023-02-14T15:17:43.672Z,26.38
2023-02-14T15:20:19.441Z,25.85
2023-02-14T15:22:50.317Z,22.60
2023-02-14T15:25:26.116Z,22.92
2023-02-14T15:27:53.418Z,21.05
2023-02-14T15:30:20.471Z,23.55
2023-02-14T15:32:49.844Z,19.77
2023-02-14T15:35:22.134Z,26.20
2023-02-14T15:37:50.810Z,22.60
2023-02-14T15:40:22.791Z,24.25
2023-02-14T15:42:56.639Z,21.63
2023-02-14T15:45:27.776Z,23.20
2023-02-14T15:47:59.647Z,25.75
2023-02-14T15:50:32.831Z,27.38
2023-02-14T15:53:50.362Z,23.73
2023-02-14T15:56:41.495Z,24.80
2023-02-14T15:59:27.019Z,26.95
2023-02-14T16:01:59.645Z,25.65
2023-02-14T16:04:30.784Z,26.73
2023-02-14T16:07:29.566Z,31.23
2023-02-14T16:10:25.103Z,24.75
2023-02-14T16:13:19.788Z,25.17
2023-02-14T16:16:07.680Z,26.80
2023-02-14T16:18:42.523Z,25.73
2023-02-14T16:21:15.353Z,28.15
2023-02-14T16:23:45.141Z,23.40
2023-02-14T16:26:12.769Z,26.05
2023-02-14T16:28:41.428Z,24.35
2023-02-14T16:31:16.817Z,27.48
2023-02-14T16:33:43.908Z,26.23
2023-02-14T16:36:25.322Z,28.23
2023-02-14T16:38:53.203Z,35.63
2023-02-14T16:41:31.217Z,29.20
2023-02-14T16:43:58.031Z,30.48
2023-02-14T16:46:35.653Z,38.42
2023-02-14T16:49:02.571Z,37.78
2023-02-14T16:51:33.394Z,42.50
2023-02-14T16:54:04.079Z,42.28
2023-02-14T16:56:38.655Z,42.97
2023-02-14T16:59:05.618Z,46.45
2023-02-14T17:01:32.789Z,40.33
2023-02-14T17:04:00.458Z,36.50
2023-02-14T17:06:31.891Z,43.05
2023-02-14T17:09:03.991Z,41.50
2023-02-14T17:11:32.986Z,41.83
2023-02-14T17:14:00.003Z,35.30
2023-02-14T17:16:27.204Z,35.97
2023-02-14T17:18:54.303Z,39.42
2023-02-14T17:21:23.038Z,41.42
2023-02-14T17:23:50.318Z,34.85
2023-02-14T17:26:22.257Z,34.22
2023-02-14T17:28:49.977Z,36.92
2023-02-14T17:31:18.461Z,36.25
2023-02-14T17:33:46.482Z,45.13
2023-02-14T17:36:14.760Z,38.72
2023-02-14T17:38:43.944Z,42.83
2023-02-14T17:41:27.894Z,40.33
2023-02-14T17:44:00.206Z,34.38
2023-02-14T17:46:32.092Z,46.38
2023-02-14T17:48:59.362Z,47.90
2023-02-14T17:51:26.305Z,53.47
2023-02-14T17:53:53.469Z,45.67
2023-02-14T17:56:24.367Z,51.45
2023-02-14T17:58:53.314Z,45.70
2023-02-14T18:01:23.980Z,42.53
2023-02-14T18:03:54.040Z,42.13
2023-02-14T18:06:21.604Z,44.58
2023-02-14T18:08:51.948Z,49.53
2023-02-14T18:11:21.465Z,39.97
2023-02-14T18:13:48.815Z,44.83
2023-02-14T18:16:18.411Z,37.28
2023-02-14T18:18:46.197Z,41.40
2023-02-14T18:21:17.050Z,36.58
2023-02-14T18:23:43.956Z,43.42
2023-02-14T18:26:13.492Z,41.47
2023-02-14T18:28:40.919Z,43.78
2023-02-14T18:31:14.910Z,40.05
2023-02-14T18:33:42.013Z,41.70
2023-02-14T18:36:12.840Z,43.60
2023-02-14T18:38:41.986Z,52.53
2023-02-14T18:41:13.274Z,53.67
2023-02-14T18:43:44.665Z,54.00
2023-02-14T18:46:33.989Z,76.70
2023-02-14T18:49:00.858Z,93.70
2023-02-14T18:51:31.181Z,72.70
2023-02-14T18:54:01.103Z,66.38
2023-02-14T18:56:31.457Z,56.47
2023-02-14T18:59:07.864Z,68.68
2023-02-14T19:01:42.911Z,58.20
2023-02-14T19:04:12.365Z,54.90
2023-02-14T19:06:41.537Z,60.08
2023-02-14T19:09:15.174Z,61.10
2023-02-14T19:11:42.479Z,55.83
2023-02-14T19:14:10.555Z,59.00
2023-02-14T19:16:43.981Z,66.65
2023-02-14T19:19:11.316Z,66.88
2023-02-14T19:21:38.542Z,72.80
2023-02-14T19:24:07.251Z,73.20
2023-02-14T19:26:40.600Z,72.80
2023-02-14T19:29:15.445Z,84.50
2023-02-14T19:31:46.140Z,94.45
2023-02-14T19:34:23.326Z,80.30
2023-02-14T19:36:52.736Z,69.60
2023-02-14T19:39:21.259Z,69.78
2023-02-14T19:41:48.053Z,80.78
2023-02-14T19:44:17.357Z,83.00
2023-02-14T19:46:46.632Z,88.43
2023-02-14T19:49:20.135Z,86.93
2023-02-14T19:51:51.365Z,78.53
2023-02-14T19:54:19.918Z,91.80
2023-02-14T19:56:47.960Z,83.88
2023-02-14T19:59:20.447Z,77.70
2023-02-14T20:01:54.086Z,83.40
2023-02-14T20:04:27.735Z,72.10
2023-02-14T20:06:55.706Z,81.60
2023-02-14T20:09:23.635Z,70.63
2023-02-14T20:12:01.513Z,71.18
2023-02-14T20:14:43.685Z,64.43
2023-02-14T20:17:18.355Z,67.20
2023-02-14T20:19:46.465Z,68.00
2023-02-14T20:22:15.534Z,73.55
2023-02-14T20:24:42.438Z,59.45
2023-02-14T20:27:09.253Z,66.38
2023-02-14T20:29:38.979Z,57.25
2023-02-14T20:32:06.041Z,57.83
2023-02-14T20:34:33.054Z,58.90
2023-02-14T20:37:00.446Z,63.53
2023-02-14T20:39:31.496Z,64.47
2023-02-14T20:41:59.582Z,65.38
2023-02-14T20:44:27.276Z,62.50
2023-02-14T20:46:55.924Z,62.33
2023-02-14T20:49:25.108Z,57.47
2023-02-14T20:51:53.033Z,66.88
2023-02-14T20:54:24.298Z,67.55
2023-02-14T20:56:52.112Z,64.03
2023-02-14T20:59:24.435Z,61.33
2023-02-14T21:01:51.603Z,64.47
2023-02-14T21:04:18.459Z,72.93
2023-02-14T21:06:45.308Z,59.67
2023-02-14T21:09:12.109Z,66.75
2023-02-14T21:11:39.660Z,68.75
2023-02-14T21:14:06.542Z,68.07
2023-02-14T21:16:33.467Z,69.35
2023-02-14T21:19:00.993Z,74.72
2023-02-14T21:21:36.788Z,74.32
2023-02-14T21:24:08.541Z,82.47
2023-02-14T21:26:36.269Z,88.68
2023-02-14T21:29:03.653Z,77.68
2023-02-14T21:31:31.757Z,81.38
2023-02-14T21:34:01.053Z,87.47
2023-02-14T21:36:31.260Z,86.38
2023-02-14T21:39:00.035Z,85.10
2023-02-14T21:41:29.768Z,83.15
2023-02-14T21:43:59.584Z,80.10
2023-02-14T21:46:33.327Z,67.18
2023-02-14T21:49:23.123Z,67.18
2023-02-14T21:51:49.962Z,70.53
2023-02-14T21:54:17.729Z,77.90
2023-02-14T21:56:45.295Z,75.32
2023-02-14T21:59:12.694Z,75.47
2023-02-14T22:01:41.596Z,71.57
2023-02-14T22:04:11.697Z,68.78
2023-02-14T22:06:40.967Z,71.63
2023-02-14T22:09:08.542Z,74.65
2023-02-14T22:11:35.929Z,77.40
2023-02-14T22:14:03.313Z,93.20
2023-02-14T22:16:30.171Z,84.28
2023-02-14T22:18:57.186Z,86.32
2023-02-14T22:21:26.824Z,79.63
2023-02-14T22:23:55.804Z,77.28
2023-02-14T22:26:28.319Z,86.55
2023-02-14T22:29:00.635Z,84.93
2023-02-14T22:31:34.318Z,81.70
2023-02-14T22:34:01.262Z,72.53
2023-02-14T22:36:28.281Z,80.05
2023-02-14T22:38:55.121Z,80.50
2023-02-14T22:41:25.048Z,82.20
2023-02-14T22:43:53.414Z,78.38
2023-02-14T22:46:28.560Z,78.72
2023-02-14T22:48:57.493Z,80.00
2023-02-14T22:51:30.927Z,77.00
2023-02-14T22:54:04.275Z,86.95
2023-02-14T22:56:40.051Z,80.15
2023-02-14T22:59:14.484Z,76.88
2023-02-14T23:01:41.380Z,86.05
2023-02-14T23:04:08.311Z,81.30
2023-02-14T23:06:37.952Z,86.95
2023-02-14T23:09:08.911Z,71.38
2023-02-14T23:11:38.717Z,87.55
2023-02-14T23:14:25.256Z,72.03
2023-02-14T23:17:10.948Z,73.55
2023-02-14T23:19:56.907Z,75.45
2023-02-14T23:22:27.570Z,78.68
2023-02-14T23:24:57.583Z,75.22
2023-02-14T23:27:30.975Z,82.85
2023-02-14T23:29:58.348Z,80.55
2023-02-14T23:32:25.326Z,77.68
2023-02-14T23:34:52.433Z,89.15
2023-02-14T23:37:20.043Z,86.50
2023-02-14T23:39:47.052Z,82.20
2023-02-14T23:42:16.180Z,85.05
2023-02-14T23:44:44.878Z,80.68
2023-02-14T23:47:13.648Z,90.65
2023-02-14T23:49:42.057Z,77.80
2023-02-14T23:52:12.270Z,92.68
2023-02-14T23:54:39.631Z,92.13
2023-02-14T23:57:08.169Z,94.97
2023-02-14T23:59:35.342Z,75.35
